createdAt,value
2022-12-09T00:01:14.851Z,1.62
2022-12-09T00:06:26.798Z,1.59
2022-12-09T00:11:36.606Z,1.58
2022-12-09T00:16:46.045Z,1.57
2022-12-09T00:22:06.119Z,1.56
2022-12-09T00:27:18.212Z,1.53
2022-12-09T00:32:30.758Z,1.52
2022-12-09T00:37:40.865Z,1.50
2022-12-09T00:42:51.615Z,1.47
2022-12-09T00:48:04.322Z,1.43
2022-12-09T00:53:19.489Z,1.38
2022-12-09T00:58:33.473Z,1.33
2022-12-09T01:03:41.762Z,1.25
2022-12-09T01:08:51.391Z,1.20
2022-12-09T01:14:03.638Z,1.17
2022-12-09T01:19:14.700Z,1.16
2022-12-09T01:24:23.535Z,1.13
2022-12-09T01:29:32.252Z,1.11
2022-12-09T01:35:20.779Z,1.11
2022-12-09T01:41:15.494Z,1.10
2022-12-09T01:46:32.612Z,1.10
2022-12-09T01:51:42.417Z,1.08
2022-12-09T01:56:54.836Z,1.08
2022-12-09T02:02:11.597Z,1.06
2022-12-09T02:07:23.207Z,1.05
2022-12-09T02:12:44.069Z,1.04
2022-12-09T02:17:59.600Z,1.03
2022-12-09T02:23:12.965Z,1.01
2022-12-09T02:28:46.574Z,0.97
2022-12-09T02:34:10.468Z,0.93
2022-12-09T02:39:28.278Z,0.89
2022-12-09T02:44:41.796Z,0.86
2022-12-09T02:49:52.962Z,0.82
2022-12-09T02:55:04.183Z,0.77
2022-12-09T03:00:19.066Z,0.71
2022-12-09T03:05:52.838Z,0.66
2022-12-09T03:11:11.499Z,0.60
2022-12-09T03:16:29.607Z,0.52
2022-12-09T03:21:47.321Z,0.45
2022-12-09T03:26:58.566Z,0.40
2022-12-09T03:32:07.547Z,0.38
2022-12-09T03:37:27.587Z,0.37
2022-12-09T03:42:45.491Z,0.33
2022-12-09T03:47:54.089Z,0.30
2022-12-09T03:53:06.305Z,0.25
2022-12-09T03:58:16.837Z,0.18
2022-12-09T04:03:24.458Z,0.09
2022-12-09T04:08:32.000Z,0.04
2022-12-09T04:13:39.412Z,-0.01
2022-12-09T04:18:46.672Z,-0.09
2022-12-09T04:23:53.858Z,-0.17
2022-12-09T04:29:00.773Z,-0.25
2022-12-09T04:34:09.911Z,-0.31
2022-12-09T04:39:17.146Z,-0.40
2022-12-09T04:44:24.505Z,-0.49
2022-12-09T04:49:32.311Z,-0.59
2022-12-09T04:54:39.351Z,-0.67
2022-12-09T04:59:46.507Z,-0.79
2022-12-09T05:04:53.968Z,-0.88
2022-12-09T05:10:01.496Z,-0.97
2022-12-09T05:15:10.386Z,-1.08
2022-12-09T05:20:17.695Z,-1.12
2022-12-09T05:25:25.022Z,-1.18
2022-12-09T05:30:32.420Z,-1.23
2022-12-09T05:35:50.528Z,-1.26
2022-12-09T05:41:19.711Z,-1.22
2022-12-09T05:46:27.424Z,-1.16
2022-12-09T05:51:35.115Z,-1.06
2022-12-09T05:56:47.899Z,-0.96
2022-12-09T06:01:55.824Z,-0.85
2022-12-09T06:07:03.056Z,-0.76
2022-12-09T06:12:12.404Z,-0.66
2022-12-09T06:17:20.047Z,-0.60
2022-12-09T06:22:27.023Z,-0.53
2022-12-09T06:27:33.957Z,-0.49
2022-12-09T06:32:41.044Z,-0.44
2022-12-09T06:37:49.280Z,-0.39
2022-12-09T06:42:56.536Z,-0.35
2022-12-09T06:48:04.022Z,-0.31
2022-12-09T06:53:11.397Z,-0.29
2022-12-09T06:58:18.666Z,-0.25
2022-12-09T07:03:26.265Z,-0.22
2022-12-09T07:08:33.514Z,-0.18
2022-12-09T07:13:40.604Z,-0.16
2022-12-09T07:18:47.776Z,-0.14
2022-12-09T07:23:55.380Z,-0.12
2022-12-09T07:29:04.665Z,-0.11
2022-12-09T07:34:13.592Z,-0.11
2022-12-09T07:39:21.762Z,-0.09
2022-12-09T07:44:29.610Z,-0.06
2022-12-09T07:49:37.392Z,-0.01
2022-12-09T07:54:44.970Z,0.04
2022-12-09T07:59:53.486Z,0.11
2022-12-09T08:05:02.287Z,0.15
2022-12-09T08:10:11.525Z,0.16
2022-12-09T08:15:20.291Z,0.15
2022-12-09T08:20:29.584Z,0.18
2022-12-09T08:25:37.453Z,0.22
2022-12-09T08:30:44.697Z,0.26
2022-12-09T08:35:52.389Z,0.31
2022-12-09T08:41:00.022Z,0.39
2022-12-09T08:46:08.136Z,0.48
2022-12-09T08:51:15.822Z,0.58
2022-12-09T08:56:23.104Z,0.72
2022-12-09T09:01:34.860Z,0.82
2022-12-09T09:06:45.275Z,0.92
2022-12-09T09:11:52.679Z,1.00
2022-12-09T09:17:00.129Z,1.08
2022-12-09T09:22:07.436Z,1.16
2022-12-09T09:27:14.760Z,1.29
2022-12-09T09:32:22.154Z,1.36
2022-12-09T09:37:29.190Z,1.42
2022-12-09T09:42:45.909Z,1.48
2022-12-09T09:47:55.946Z,1.55
2022-12-09T09:53:14.880Z,1.63
2022-12-09T09:58:27.312Z,1.72
2022-12-09T10:03:53.574Z,1.80
2022-12-09T10:09:05.699Z,1.86
2022-12-09T10:14:21.164Z,1.94
2022-12-09T10:19:32.997Z,2.05
2022-12-09T10:24:44.589Z,2.15
2022-12-09T10:29:59.181Z,2.25
2022-12-09T10:35:16.542Z,2.35
2022-12-09T10:40:30.978Z,2.43
2022-12-09T10:46:16.802Z,2.52
2022-12-09T10:51:17.834Z,2.60
2022-12-09T10:56:27.377Z,2.70
2022-12-09T11:01:51.721Z,2.83
2022-12-09T11:07:02.179Z,2.97
2022-12-09T11:12:19.259Z,3.09
2022-12-09T11:17:29.349Z,3.26
2022-12-09T11:22:41.435Z,3.41
2022-12-09T11:28:01.974Z,3.54
2022-12-09T11:33:25.248Z,3.68
2022-12-09T11:39:05.536Z,3.80
2022-12-09T11:44:29.225Z,3.90
2022-12-09T11:49:48.357Z,3.93
2022-12-09T11:55:19.672Z,3.94
2022-12-09T12:00:34.221Z,4.02
2022-12-09T12:05:46.760Z,4.22
2022-12-09T12:10:58.590Z,4.42
2022-12-09T12:16:13.069Z,4.56
2022-12-09T12:21:36.849Z,4.68
2022-12-09T12:26:57.437Z,4.69
2022-12-09T12:32:17.601Z,4.69
2022-12-09T12:37:41.598Z,4.75
2022-12-09T12:43:23.440Z,4.93
2022-12-09T12:48:40.793Z,5.13
2022-12-09T12:54:03.511Z,5.27
2022-12-09T12:59:25.506Z,5.26
2022-12-09T13:04:48.658Z,5.24
2022-12-09T13:10:23.745Z,5.26
2022-12-09T13:15:38.858Z,5.24
2022-12-09T13:20:51.713Z,5.14
2022-12-09T13:26:14.245Z,5.07
2022-12-09T13:31:32.287Z,4.96
2022-12-09T13:36:53.067Z,4.86
2022-12-09T13:42:19.456Z,4.80
2022-12-09T13:47:35.526Z,4.68
2022-12-09T13:52:54.502Z,4.56
2022-12-09T13:58:24.608Z,4.44
2022-12-09T14:03:45.114Z,4.33
2022-12-09T14:09:02.572Z,4.20
2022-12-09T14:14:53.928Z,4.07
2022-12-09T14:20:17.484Z,3.95
2022-12-09T14:25:59.790Z,3.79
2022-12-09T14:31:09.487Z,3.63
2022-12-09T14:36:33.403Z,3.47
2022-12-09T14:41:50.802Z,3.29
2022-12-09T14:47:30.164Z,3.12
2022-12-09T14:52:38.748Z,3.01
2022-12-09T14:57:55.105Z,2.90
2022-12-09T15:08:37.462Z,2.76
2022-12-09T15:13:48.827Z,2.71
2022-12-09T15:18:57.566Z,2.68
2022-12-09T15:24:17.119Z,2.64
2022-12-09T15:29:32.107Z,2.60
2022-12-09T15:34:44.240Z,2.57
2022-12-09T15:39:59.044Z,2.55
2022-12-09T15:45:15.440Z,2.52
2022-12-09T15:50:28.867Z,2.49
2022-12-09T15:55:46.276Z,2.45
2022-12-09T16:01:23.853Z,2.42
2022-12-09T16:06:36.643Z,2.41
2022-12-09T16:11:50.335Z,2.40
2022-12-09T16:17:02.340Z,2.37
2022-12-09T16:22:18.084Z,2.37
2022-12-09T16:27:33.997Z,2.33
2022-12-09T16:33:17.552Z,2.31
2022-12-09T16:38:47.546Z,2.28
2022-12-09T16:44:02.883Z,2.28
2022-12-09T16:49:12.312Z,2.27
2022-12-09T16:54:39.728Z,2.24
2022-12-09T16:59:55.681Z,2.19
2022-12-09T17:05:25.079Z,2.15
2022-12-09T17:10:37.535Z,2.13
2022-12-09T17:15:51.702Z,2.10
2022-12-09T17:21:16.830Z,2.07
2022-12-09T17:26:26.010Z,2.05
2022-12-09T17:31:36.900Z,2.04
2022-12-09T17:36:48.663Z,2.02
2022-12-09T17:41:58.253Z,2.00
2022-12-09T17:47:11.485Z,1.99
2022-12-09T17:52:20.750Z,1.96
2022-12-09T17:57:42.954Z,1.93
2022-12-09T18:03:04.196Z,1.90
2022-12-09T18:08:37.180Z,1.87
2022-12-09T18:13:49.068Z,1.83
2022-12-09T18:19:04.625Z,1.79
2022-12-09T18:24:15.789Z,1.77
2022-12-09T18:29:31.279Z,1.73
2022-12-09T18:34:44.263Z,1.70
2022-12-09T18:39:53.509Z,1.68
2022-12-09T18:45:06.324Z,1.64
2022-12-09T18:50:17.939Z,1.62
2022-12-09T18:55:25.677Z,1.61
2022-12-09T19:00:32.971Z,1.58
2022-12-09T19:05:43.774Z,1.56
2022-12-09T19:11:11.053Z,1.54
2022-12-09T19:16:20.138Z,1.52
2022-12-09T19:21:28.643Z,1.48
2022-12-09T19:26:37.935Z,1.46
2022-12-09T19:31:47.017Z,1.44
2022-12-09T19:36:58.029Z,1.42
2022-12-09T19:42:06.362Z,1.39
2022-12-09T19:47:13.558Z,1.38
2022-12-09T19:52:21.108Z,1.35
2022-12-09T19:57:47.554Z,1.32
2022-12-09T20:03:02.109Z,1.29
2022-12-09T20:08:10.802Z,1.26
2022-12-09T20:13:19.252Z,1.21
2022-12-09T20:18:27.012Z,1.19
2022-12-09T20:23:35.119Z,1.16
2022-12-09T20:28:44.562Z,1.12
2022-12-09T20:33:58.528Z,1.08
2022-12-09T20:39:12.436Z,1.05
2022-12-09T20:44:21.211Z,1.02
2022-12-09T20:49:44.244Z,0.99
2022-12-09T20:55:03.019Z,0.99
2022-12-09T21:00:19.317Z,0.98
2022-12-09T21:05:29.776Z,0.97
2022-12-09T21:10:37.528Z,0.98
2022-12-09T21:15:45.874Z,0.99
2022-12-09T21:20:56.398Z,0.99
2022-12-09T21:26:08.302Z,1.01
2022-12-09T21:31:19.818Z,1.02
2022-12-09T21:36:29.443Z,1.04
2022-12-09T21:41:38.463Z,1.05
2022-12-09T21:46:46.212Z,1.05
2022-12-09T21:51:56.514Z,1.06
2022-12-09T21:57:03.695Z,1.07
2022-12-09T22:02:12.732Z,1.10
2022-12-09T22:07:22.561Z,1.14
2022-12-09T22:12:33.287Z,1.18
2022-12-09T22:17:41.844Z,1.21
2022-12-09T22:22:49.109Z,1.25
2022-12-09T22:28:02.250Z,1.28
2022-12-09T22:33:10.000Z,1.29
2022-12-09T22:38:17.667Z,1.31
2022-12-09T22:43:36.466Z,1.33
2022-12-09T22:48:46.218Z,1.35
2022-12-09T22:53:56.104Z,1.36
2022-12-09T22:59:03.855Z,1.36
2022-12-09T23:04:14.436Z,1.37
2022-12-09T23:09:27.346Z,1.38
2022-12-09T23:14:38.037Z,1.38
2022-12-09T23:19:48.262Z,1.38
2022-12-09T23:25:02.810Z,1.39
2022-12-09T23:30:12.060Z,1.40
2022-12-09T23:35:22.003Z,1.40
2022-12-09T23:40:32.453Z,1.41
2022-12-09T23:45:39.680Z,1.40
2022-12-09T23:50:46.861Z,1.41
2022-12-09T23:55:53.965Z,1.41
